Time;durP1;ratioP1;P1;durP2;ratioP2;P2;SDS_P1;SDS_P2;PMS_P1;PMS_P2;Temp;Humidity;BMP_temperature;BMP_pressure;BME280_temperature;BME280_humidity;BME280_pressure;Samples;Min_cycle;Max_cycle;Signal;HPM_P1;HPM_P2
2021/08/13 00:01:37;;;;;;;;;;;;;;;26.46;45.36;101976.16;4980532;28;19933;-84
2021/08/13 00:04:03;;;;;;;;;;;;;;;26.43;45.58;101976.47;4980122;28;20419;-85
2021/08/13 00:06:29;;;;;;;;;;;;;;;26.70;44.88;101974.81;4981848;28;20364;-84
2021/08/13 00:08:54;;;;;;;;;;;;;;;26.60;45.09;101982.25;4980082;28;19918;-84
2021/08/13 00:11:19;;;;;;;;;;;;;;;26.43;45.42;101978.38;4980342;28;19925;-84
2021/08/13 00:13:45;;;;;;;;;;;;;;;26.06;46.72;101990.25;4981864;28;19918;-84
2021/08/13 00:16:10;;;;;;;;;;;;;;;26.07;46.75;101994.78;4982911;28;19972;-84
2021/08/13 00:18:36;;;;;;;;;;;;;;;26.29;46.10;101993.59;4979912;28;19918;-84
2021/08/13 00:21:02;;;;;;;;;;;;;;;26.13;46.26;101997.84;4980582;28;20008;-84
2021/08/13 00:23:28;;;;;;;;;;;;;;;26.13;46.29;101997.84;4982209;28;19980;-84
2021/08/13 00:25:53;;;;;;;;;;;;;;;26.37;45.64;101999.25;4980511;28;19918;-84
2021/08/13 00:28:18;;;;;;;;;;;;;;;26.34;45.45;101997.69;4980020;28;20069;-82
2021/08/13 00:30:43;;;;;;;;;;;;;;;26.56;44.94;102003.00;4978067;28;19926;-83
2021/08/13 00:33:09;;;;;;;;;;;;;;;26.37;45.75;102009.50;4977942;28;19919;-84
2021/08/13 00:35:34;;;;;;;;;;;;;;;26.10;46.21;102016.66;4976409;28;19961;-84
2021/08/13 00:37:59;;;;;;;;;;;;;;;26.08;46.64;102016.81;4977389;28;20378;-85
2021/08/13 00:40:25;;;;;;;;;;;;;;;25.71;47.56;102014.75;4978491;28;20347;-85
2021/08/13 00:42:50;;;;;;;;;;;;;;;25.85;47.34;102013.44;4976572;28;20287;-84
2021/08/13 00:45:15;;;;;;;;;;;;;;;25.93;47.30;102013.56;4976422;28;20287;-84
2021/08/13 00:47:40;;;;;;;;;;;;;;;25.69;48.01;102008.44;4977577;28;19925;-84
2021/08/13 00:50:06;;;;;;;;;;;;;;;25.71;47.89;102011.97;4976751;28;19964;-84
2021/08/13 00:52:31;;;;;;;;;;;;;;;26.14;46.85;102009.81;4976566;28;20026;-84
2021/08/13 00:54:57;;;;;;;;;;;;;;;25.98;46.96;102004.81;4977236;28;20028;-84
2021/08/13 00:57:22;;;;;;;;;;;;;;;25.86;47.45;101997.66;4976768;28;20425;-84
2021/08/13 00:59:47;;;;;;;;;;;;;;;25.53;48.67;102005.34;4977246;28;19922;-84
2021/08/13 01:02:12;;;;;;;;;;;;;;;25.78;48.06;102004.81;4976434;28;19922;-84
2021/08/13 01:04:38;;;;;;;;;;;;;;;25.06;50.33;102014.22;4976198;28;20277;-84
2021/08/13 01:07:04;;;;;;;;;;;;;;;25.21;50.37;102011.94;4976885;28;20332;-85
2021/08/13 01:09:29;;;;;;;;;;;;;;;25.66;48.80;102011.50;4960499;28;19953;-84
2021/08/13 01:11:59;;;;;;;;;;;;;;;25.66;48.47;102014.28;4976909;28;19925;-84
2021/08/13 01:14:40;;;;;;;;;;;;;;;25.51;48.56;102012.94;4977331;28;19981;-84
2021/08/13 01:17:07;;;;;;;;;;;;;;;25.83;47.67;102013.59;4976718;28;19918;-84
2021/08/13 01:19:32;;;;;;;;;;;;;;;25.69;47.87;102018.66;4978022;28;19950;-84
2021/08/13 01:22:03;;;;;;;;;;;;;;;25.67;47.59;102018.81;4962706;28;19929;-84
2021/08/13 01:24:30;;;;;;;;;;;;;;;25.60;47.59;102015.72;4981811;28;19922;-84
2021/08/13 01:27:05;;;;;;;;;;;;;;;25.90;46.36;102015.78;4980415;28;20272;-84
2021/08/13 01:29:37;;;;;;;;;;;;;;;25.93;46.23;102012.69;4981255;28;19918;-85
2021/08/13 01:32:11;;;;;;;;;;;;;;;25.91;46.30;102021.16;4979982;28;19926;-84
2021/08/13 01:34:39;;;;;;;;;;;;;;;26.04;45.56;102023.66;4982547;28;19918;-84
2021/08/13 01:37:05;;;;;;;;;;;;;;;25.93;46.13;102026.56;4966950;28;19918;-84
2021/08/13 01:39:31;;;;;;;;;;;;;;;25.74;46.92;102019.09;4984937;28;19962;-84
2021/08/13 01:41:57;;;;;;;;;;;;;;;25.81;46.72;102015.59;4984512;28;20414;-84
2021/08/13 01:44:23;;;;;;;;;;;;;;;25.55;47.71;102012.53;4983128;28;19986;-84
2021/08/13 01:46:48;;;;;;;;;;;;;;;25.33;48.56;102005.31;4984258;28;20001;-84
2021/08/13 01:49:14;;;;;;;;;;;;;;;25.11;49.79;102012.81;4984372;28;20063;-84
2021/08/13 01:51:40;;;;;;;;;;;;;;;25.75;47.71;102013.41;4985060;28;19918;-83
2021/08/13 01:54:06;;;;;;;;;;;;;;;25.78;47.44;102004.81;4982861;28;19924;-85
2021/08/13 01:56:31;;;;;;;;;;;;;;;25.95;46.52;102011.53;4983262;28;19918;-84
2021/08/13 01:58:57;;;;;;;;;;;;;;;25.69;47.11;102016.75;4983310;28;19925;-84
2021/08/13 02:01:23;;;;;;;;;;;;;;;25.69;46.99;102016.75;4984043;28;19927;-84
2021/08/13 02:03:49;;;;;;;;;;;;;;;25.22;47.84;102020.13;4985011;28;19926;-84
2021/08/13 02:06:14;;;;;;;;;;;;;;;25.46;46.95;102027.22;4984242;28;19918;-85
2021/08/13 02:08:42;;;;;;;;;;;;;;;25.62;46.38;102023.88;4985915;28;20323;-85
2021/08/13 02:11:08;;;;;;;;;;;;;;;25.38;46.93;102025.16;4983929;28;20033;-85
2021/08/13 02:13:34;;;;;;;;;;;;;;;25.18;47.13;102023.31;4984886;28;19942;-85
2021/08/13 02:16:05;;;;;;;;;;;;;;;25.29;46.44;102017.69;4986814;28;19944;-85
2021/08/13 02:18:31;;;;;;;;;;;;;;;24.97;47.34;102015.06;4987477;28;19919;-85
2021/08/13 02:21:00;;;;;;;;;;;;;;;25.14;47.24;102019.97;4985889;28;19929;-84
2021/08/13 02:23:25;;;;;;;;;;;;;;;25.08;47.25;102018.63;4985318;28;19948;-85
2021/08/13 02:25:51;;;;;;;;;;;;;;;25.41;46.13;102008.25;4986324;28;19919;-85
2021/08/13 02:28:16;;;;;;;;;;;;;;;25.01;47.29;102011.88;4984887;28;20384;-85
2021/08/13 02:30:41;;;;;;;;;;;;;;;25.35;46.26;102017.16;4984782;28;19958;-85
2021/08/13 02:33:06;;;;;;;;;;;;;;;25.41;46.44;102018.44;4983973;28;19982;-84
2021/08/13 02:35:32;;;;;;;;;;;;;;;25.24;46.95;102017.22;4986058;28;19958;-85
2021/08/13 02:38:02;;;;;;;;;;;;;;;25.72;45.36;102021.16;4985622;28;19985;-84
2021/08/13 02:40:30;;;;;;;;;;;;;;;25.46;46.31;102016.16;4985530;28;19922;-85
2021/08/13 02:43:01;;;;;;;;;;;;;;;25.79;45.61;102012.13;4968796;28;20451;-85
2021/08/13 02:45:29;;;;;;;;;;;;;;;25.44;46.41;102013.53;4968421;28;19902;-85
2021/08/13 02:47:55;;;;;;;;;;;;;;;25.65;46.03;102016.19;4984787;28;19993;-85
2021/08/13 02:50:22;;;;;;;;;;;;;;;25.33;47.01;102013.63;4984564;28;19953;-84
2021/08/13 02:53:04;;;;;;;;;;;;;;;25.55;46.60;102014.44;4985261;28;19919;-85
2021/08/13 02:55:35;;;;;;;;;;;;;;;25.19;48.04;102008.47;4985277;28;19925;-85
2021/08/13 02:58:02;;;;;;;;;;;;;;;24.76;49.28;102011.34;4983902;28;19918;-84
2021/08/13 03:00:28;;;;;;;;;;;;;;;25.06;48.16;102015.13;4985530;28;19926;-84
2021/08/13 03:02:54;;;;;;;;;;;;;;;25.32;47.64;102009.13;4983567;28;19922;-85
2021/08/13 03:05:22;;;;;;;;;;;;;;;25.65;46.16;102009.75;4982835;28;20212;-85
2021/08/13 03:07:48;;;;;;;;;;;;;;;25.20;47.67;102004.66;4984428;28;19922;-84
2021/08/13 03:10:14;;;;;;;;;;;;;;;25.13;47.54;102004.34;4983824;28;19997;-85
2021/08/13 03:12:40;;;;;;;;;;;;;;;25.32;46.91;102011.91;4983798;28;19925;-85
2021/08/13 03:15:06;;;;;;;;;;;;;;;25.42;46.33;102018.31;4983225;28;19918;-84
2021/08/13 03:17:31;;;;;;;;;;;;;;;25.35;46.50;102024.56;4985121;28;20025;-84
2021/08/13 03:19:57;;;;;;;;;;;;;;;25.33;46.53;102021.94;4983568;28;19922;-85
2021/08/13 03:22:23;;;;;;;;;;;;;;;25.43;45.95;102017.31;4983668;28;19933;-84
2021/08/13 03:24:48;;;;;;;;;;;;;;;24.90;47.83;102020.31;4967238;28;19922;-85
2021/08/13 03:27:16;;;;;;;;;;;;;;;25.27;46.88;102017.81;4967885;28;20020;-84
2021/08/13 03:29:41;;;;;;;;;;;;;;;25.18;46.87;102017.78;4984373;28;19919;-84
2021/08/13 03:32:07;;;;;;;;;;;;;;;24.94;47.93;102013.44;4983706;28;19928;-84
2021/08/13 03:34:33;;;;;;;;;;;;;;;24.73;48.36;102008.84;4982844;28;19918;-84
2021/08/13 03:36:58;;;;;;;;;;;;;;;25.07;47.21;102010.44;4983500;28;19922;-85
2021/08/13 03:39:23;;;;;;;;;;;;;;;25.18;47.04;102003.94;4983129;28;19918;-84
2021/08/13 03:41:49;;;;;;;;;;;;;;;25.07;47.15;102010.44;4983452;28;19924;-85
2021/08/13 03:44:14;;;;;;;;;;;;;;;25.02;47.47;102001.72;4983359;28;20399;-84
2021/08/13 03:46:39;;;;;;;;;;;;;;;24.60;48.57;101994.34;4982681;28;19929;-85
2021/08/13 03:49:04;;;;;;;;;;;;;;;24.84;48.04;101990.41;4983201;28;19919;-84
2021/08/13 03:51:29;;;;;;;;;;;;;;;25.00;47.57;101993.53;4982336;28;19918;-85
2021/08/13 03:53:56;;;;;;;;;;;;;;;24.75;48.33;101997.63;4982843;28;19918;-85
2021/08/13 03:56:21;;;;;;;;;;;;;;;24.34;49.35;101993.88;4982874;28;19944;-84
2021/08/13 03:58:46;;;;;;;;;;;;;;;24.84;48.31;101994.03;4983203;28;19925;-85
2021/08/13 04:01:11;;;;;;;;;;;;;;;24.60;49.01;101994.34;4983764;28;19922;-85
2021/08/13 04:03:37;;;;;;;;;;;;;;;24.88;48.09;101997.41;4982567;28;19921;-84
2021/08/13 04:06:02;;;;;;;;;;;;;;;24.47;49.56;101997.28;4982594;28;20024;-85
2021/08/13 04:08:28;;;;;;;;;;;;;;;24.75;49.09;102003.19;4981554;28;19964;-85
2021/08/13 04:10:53;;;;;;;;;;;;;;;24.79;48.76;102003.75;4983894;28;19919;-85
2021/08/13 04:13:18;;;;;;;;;;;;;;;24.61;49.34;102003.53;4984537;28;19918;-84
2021/08/13 04:15:44;;;;;;;;;;;;;;;24.49;49.49;102016.53;4983650;28;19941;-85
2021/08/13 04:18:10;;;;;;;;;;;;;;;24.82;48.71;102014.56;4983275;28;19914;-85
2021/08/13 04:20:35;;;;;;;;;;;;;;;24.32;50.26;102015.25;4982970;28;19918;-85
2021/08/13 04:23:01;;;;;;;;;;;;;;;24.34;50.44;102019.66;4982623;28;19924;-85
2021/08/13 04:25:26;;;;;;;;;;;;;;;24.40;50.36;102021.88;4983144;28;20336;-86
2021/08/13 04:27:51;;;;;;;;;;;;;;;24.45;50.55;102012.28;4984017;28;19918;-85
2021/08/13 04:30:17;;;;;;;;;;;;;;;24.28;51.10;102019.28;4983713;28;19919;-85
2021/08/13 04:32:42;;;;;;;;;;;;;;;23.99;51.68;102015.31;4983635;28;19973;-84
2021/08/13 04:35:08;;;;;;;;;;;;;;;24.66;49.90;102020.59;4984059;28;19922;-85
2021/08/13 04:37:33;;;;;;;;;;;;;;;24.30;50.99;102020.91;4984513;28;19918;-85
2021/08/13 04:39:58;;;;;;;;;;;;;;;24.03;51.82;102016.78;4984154;28;19970;-86
2021/08/13 04:42:23;;;;;;;;;;;;;;;23.95;52.03;102024.88;4977680;28;20052;-84
2021/08/13 04:44:49;;;;;;;;;;;;;;;24.30;51.26;102009.00;4976994;28;20438;-84
2021/08/13 04:47:14;;;;;;;;;;;;;;;24.30;50.87;102011.75;4978209;28;20605;-83
2021/08/13 04:49:39;;;;;;;;;;;;;;;24.04;51.63;102007.47;4977561;28;19918;-84
2021/08/13 04:52:05;;;;;;;;;;;;;;;24.22;51.90;102009.66;4976281;28;20463;-83
2021/08/13 04:54:30;;;;;;;;;;;;;;;24.48;51.16;102003.72;4976067;28;19922;-83
2021/08/13 04:56:55;;;;;;;;;;;;;;;24.59;50.90;102003.66;4980541;28;20392;-85
2021/08/13 04:59:20;;;;;;;;;;;;;;;24.16;52.44;102010.19;4981948;28;19918;-85
2021/08/13 05:01:46;;;;;;;;;;;;;;;24.45;51.90;102009.53;4982532;28;20317;-85
2021/08/13 05:04:11;;;;;;;;;;;;;;;24.66;51.23;102002.09;4982842;28;20016;-83
2021/08/13 05:06:36;;;;;;;;;;;;;;;25.52;48.62;102006.41;4984394;28;19964;-84
2021/08/13 05:09:02;;;;;;;;;;;;;;;25.35;48.90;102011.59;4983306;28;19958;-84
2021/08/13 05:11:27;;;;;;;;;;;;;;;25.54;48.62;102007.13;4984107;28;20009;-84
2021/08/13 05:13:52;;;;;;;;;;;;;;;24.93;50.52;102014.47;4983003;28;19918;-84
2021/08/13 05:16:17;;;;;;;;;;;;;;;25.28;49.45;102015.91;4981793;28;20392;-84
2021/08/13 05:18:42;;;;;;;;;;;;;;;25.37;49.91;102011.47;4983085;28;19918;-83
2021/08/13 05:21:08;;;;;;;;;;;;;;;25.45;49.22;102014.38;4983821;28;20018;-86
2021/08/13 05:23:33;;;;;;;;;;;;;;;25.83;48.61;102009.91;4984435;28;20396;-85
2021/08/13 05:25:59;;;;;;;;;;;;;;;25.99;48.19;102017.69;4984063;28;19928;-83
2021/08/13 05:28:24;;;;;;;;;;;;;;;25.26;50.63;102009.66;4983400;28;19918;-84
2021/08/13 05:30:50;;;;;;;;;;;;;;;25.42;49.78;102010.00;4981401;28;19922;-83
2021/08/13 05:33:15;;;;;;;;;;;;;;;25.21;50.84;102017.50;4983423;28;20026;-84
2021/08/13 05:35:40;;;;;;;;;;;;;;;25.20;51.63;102029.56;4983005;28;19918;-84
2021/08/13 05:38:05;;;;;;;;;;;;;;;24.84;52.80;102029.16;4984677;28;19918;-84
2021/08/13 05:40:31;;;;;;;;;;;;;;;24.92;51.78;102015.50;4982972;28;19921;-88
2021/08/13 05:42:56;;;;;;;;;;;;;;;25.45;49.50;102017.16;4984601;28;19968;-86
2021/08/13 05:45:22;;;;;;;;;;;;;;;25.77;49.20;102018.81;4983205;28;20288;-86
2021/08/13 05:47:47;;;;;;;;;;;;;;;25.62;50.11;102023.88;4984393;28;19918;-84
2021/08/13 05:50:15;;;;;;;;;;;;;;;25.86;49.40;102030.94;4983359;28;20013;-84
2021/08/13 05:52:40;;;;;;;;;;;;;;;25.87;49.50;102021.59;4983501;28;19989;-84
2021/08/13 05:55:06;;;;;;;;;;;;;;;25.72;50.15;102030.31;4981836;28;19968;-83
2021/08/13 05:57:31;;;;;;;;;;;;;;;25.21;51.97;102032.25;4979893;28;20032;-83
2021/08/13 05:59:56;;;;;;;;;;;;;;;24.92;52.42;102040.41;4981084;28;19952;-83
2021/08/13 06:02:22;;;;;;;;;;;;;;;24.80;53.63;102038.75;4978642;28;19933;-81
2021/08/13 06:04:47;;;;;;;;;;;;;;;25.23;53.19;102041.28;4980376;28;19918;-82
2021/08/13 06:07:12;;;;;;;;;;;;;;;25.52;51.28;102034.97;4965027;28;20287;-82
2021/08/13 06:09:37;;;;;;;;;;;;;;;24.61;55.17;102040.38;4961335;28;20531;-83
2021/08/13 06:12:03;;;;;;;;;;;;;;;24.13;56.44;102049.19;4961028;28;19919;-81
2021/08/13 06:14:28;;;;;;;;;;;;;;;24.75;54.14;102051.09;4978304;28;19926;-83
2021/08/13 06:16:53;;;;;;;;;;;;;;;23.54;58.17;102048.56;4977664;28;19918;-84
2021/08/13 06:19:18;;;;;;;;;;;;;;;24.64;54.64;102053.06;4978242;28;20398;-83
2021/08/13 06:21:44;;;;;;;;;;;;;;;26.04;50.92;102068.03;4977953;28;19922;-82
2021/08/13 06:24:09;;;;;;;;;;;;;;;24.95;53.95;102057.59;4978772;28;20364;-83
2021/08/13 06:26:34;;;;;;;;;;;;;;;24.40;55.75;102059.72;4978304;28;19918;-83
2021/08/13 06:28:59;;;;;;;;;;;;;;;24.55;55.12;102065.81;4980915;28;19918;-82
2021/08/13 06:31:25;;;;;;;;;;;;;;;23.94;57.31;102064.56;4978605;28;19960;-82
2021/08/13 06:33:51;;;;;;;;;;;;;;;24.76;55.30;102057.53;4979193;28;19974;-84
2021/08/13 06:36:16;;;;;;;;;;;;;;;24.34;56.16;102063.03;4979456;28;19918;-83
2021/08/13 06:38:42;;;;;;;;;;;;;;;24.35;56.37;102068.44;4980342;28;20009;-84
2021/08/13 06:41:07;;;;;;;;;;;;;;;24.14;57.40;102065.63;4978545;28;19918;-83
2021/08/13 06:43:32;;;;;;;;;;;;;;;25.21;54.11;102079.31;4977497;28;19981;-83
2021/08/13 06:45:58;;;;;;;;;;;;;;;25.76;52.02;102072.53;4979162;28;19980;-84
2021/08/13 06:48:23;;;;;;;;;;;;;;;24.94;53.52;102079.88;4978220;28;19918;-84
2021/08/13 06:50:48;;;;;;;;;;;;;;;26.06;51.49;102081.75;4979956;28;19964;-84
2021/08/13 06:53:13;;;;;;;;;;;;;;;25.89;51.43;102088.88;4978584;28;19950;-86
2021/08/13 06:55:39;;;;;;;;;;;;;;;25.75;50.33;102082.72;4982004;28;19968;-85
2021/08/13 06:58:04;;;;;;;;;;;;;;;25.22;52.26;102085.72;4977766;28;20016;-83
2021/08/13 07:00:29;;;;;;;;;;;;;;;24.95;52.06;102076.97;4978378;28;19944;-83
2021/08/13 07:02:54;;;;;;;;;;;;;;;25.92;49.94;102083.03;4962354;28;19926;-84
2021/08/13 07:05:20;;;;;;;;;;;;;;;26.07;48.82;102097.38;4978356;28;19929;-84
2021/08/13 07:07:46;;;;;;;;;;;;;;;25.70;48.51;102093.34;4980602;28;19934;-84
2021/08/13 07:10:11;;;;;;;;;;;;;;;26.56;44.83;102087.16;4980521;28;19918;-83
2021/08/13 07:12:37;;;;;;;;;;;;;;;26.35;45.57;102090.97;4978818;28;19924;-85
2021/08/13 07:15:03;;;;;;;;;;;;;;;25.76;47.03;102094.69;4980995;28;19921;-85
2021/08/13 07:17:28;;;;;;;;;;;;;;;25.96;46.32;102095.59;4979002;28;19989;-85
2021/08/13 07:19:54;;;;;;;;;;;;;;;25.25;48.23;102079.91;4978831;28;20364;-84
2021/08/13 07:22:19;;;;;;;;;;;;;;;25.25;48.35;102096.53;4976971;28;19941;-85
2021/08/13 07:24:44;;;;;;;;;;;;;;;25.29;47.28;102109.09;4979316;28;20249;-85
2021/08/13 07:27:10;;;;;;;;;;;;;;;25.48;46.75;102086.13;4981349;28;19918;-84
2021/08/13 07:29:35;;;;;;;;;;;;;;;25.79;46.03;102089.72;4979114;28;20013;-85
2021/08/13 07:32:03;;;;;;;;;;;;;;;26.11;45.01;102102.50;4978480;28;19930;-85
2021/08/13 07:34:28;;;;;;;;;;;;;;;25.91;44.78;102126.53;4978012;28;19926;-86
2021/08/13 07:36:54;;;;;;;;;;;;;;;26.01;44.87;102132.13;4978882;28;19965;-83
2021/08/13 07:39:19;;;;;;;;;;;;;;;25.22;45.69;102133.69;4979411;28;19941;-84
2021/08/13 07:41:44;;;;;;;;;;;;;;;26.35;43.94;102135.38;4962512;28;19929;-85
2021/08/13 07:44:09;;;;;;;;;;;;;;;24.56;47.75;102129.31;4978431;28;19918;-80
2021/08/13 07:46:35;;;;;;;;;;;;;;;26.32;43.89;102120.91;4977024;28;20029;-83
2021/08/13 07:49:00;;;;;;;;;;;;;;;25.76;45.73;102116.88;4978652;28;19918;-85
2021/08/13 07:51:25;;;;;;;;;;;;;;;25.45;45.84;102123.34;4979413;28;19918;-84
2021/08/13 07:53:53;;;;;;;;;;;;;;;25.17;45.15;102110.16;4976936;28;20016;-79
2021/08/13 07:56:18;;;;;;;;;;;;;;;26.49;42.56;102110.97;4978602;28;19914;-78
2021/08/13 07:58:43;;;;;;;;;;;;;;;25.66;44.14;102105.75;4977906;28;19915;-80
2021/08/13 08:01:08;;;;;;;;;;;;;;;26.72;41.74;102131.00;4977130;28;19929;-81
2021/08/13 08:03:33;;;;;;;;;;;;;;;25.72;43.90;102146.75;4978090;28;19926;-82
2021/08/13 08:05:59;;;;;;;;;;;;;;;26.63;42.19;102127.19;4977470;28;19925;-81
2021/08/13 08:08:24;;;;;;;;;;;;;;;26.45;42.51;102112.28;4978668;28;19918;-81
2021/08/13 08:10:49;;;;;;;;;;;;;;;26.38;42.72;102112.00;4978330;28;19918;-85
2021/08/13 08:13:15;;;;;;;;;;;;;;;25.54;45.33;102112.41;4977904;28;19925;-85
2021/08/13 08:15:41;;;;;;;;;;;;;;;26.69;42.70;102131.28;4977726;28;19925;-85
2021/08/13 08:18:06;;;;;;;;;;;;;;;26.18;44.21;102134.19;4978586;28;20001;-85
2021/08/13 08:20:31;;;;;;;;;;;;;;;26.70;42.84;102120.03;4977734;28;19926;-85
2021/08/13 08:22:56;;;;;;;;;;;;;;;26.79;42.81;102134.94;4978385;28;19929;-86
2021/08/13 08:25:22;;;;;;;;;;;;;;;26.77;42.89;102137.00;4977061;28;19922;-84
2021/08/13 08:27:47;;;;;;;;;;;;;;;26.90;42.59;102145.00;4976839;28;19925;-81
2021/08/13 08:30:12;;;;;;;;;;;;;;;26.66;43.03;102148.22;4978296;28;19926;-84
2021/08/13 08:32:38;;;;;;;;;;;;;;;25.47;45.55;102151.78;4977617;28;19975;-86
2021/08/13 08:35:03;;;;;;;;;;;;;;;26.59;42.72;102155.41;4977509;28;19930;-86
2021/08/13 08:37:28;;;;;;;;;;;;;;;27.32;40.94;102152.06;4978727;28;19929;-88
2021/08/13 08:39:54;;;;;;;;;;;;;;;27.15;40.94;102154.59;4976900;28;19922;-89
2021/08/13 08:42:19;;;;;;;;;;;;;;;25.70;44.49;102154.34;4977400;28;20054;-85
2021/08/13 08:44:46;;;;;;;;;;;;;;;26.11;43.54;102160.75;4970336;28;19918;-80
2021/08/13 08:47:11;;;;;;;;;;;;;;;26.74;42.90;102153.06;4961256;28;19918;-84
2021/08/13 08:49:38;;;;;;;;;;;;;;;27.64;41.24;102173.88;4960297;28;20448;-86
2021/08/13 08:52:03;;;;;;;;;;;;;;;28.11;40.60;102175.72;4977647;28;19925;-87
2021/08/13 08:54:29;;;;;;;;;;;;;;;27.52;40.74;102175.13;4961542;28;19965;-85
2021/08/13 08:56:55;;;;;;;;;;;;;;;28.08;39.63;102184.38;4977780;28;19918;-85
2021/08/13 08:59:21;;;;;;;;;;;;;;;27.98;39.45;102180.81;4962338;28;20452;-88
2021/08/13 09:01:46;;;;;;;;;;;;;;;27.94;39.38;102189.41;4961598;28;19961;-87
2021/08/13 09:04:11;;;;;;;;;;;;;;;27.39;40.73;102190.25;4976712;28;19922;-84
2021/08/13 09:06:40;;;;;;;;;;;;;;;27.68;39.02;102191.16;4978434;28;19926;-85
2021/08/13 09:09:05;;;;;;;;;;;;;;;27.11;39.26;102191.16;4960849;28;20324;-83
2021/08/13 09:11:31;;;;;;;;;;;;;;;27.81;37.84;102191.69;4976644;28;19918;-85
2021/08/13 09:13:57;;;;;;;;;;;;;;;28.33;37.20;102187.44;4960115;28;20466;-84
2021/08/13 09:16:22;;;;;;;;;;;;;;;27.50;38.90;102199.44;4976984;28;19981;-85
2021/08/13 09:18:55;;;;;;;;;;;;;;;27.32;39.51;102194.63;4978069;28;19978;-86
2021/08/13 09:21:21;;;;;;;;;;;;;;;29.05;36.37;102193.00;4975948;28;19973;-81
2021/08/13 09:23:46;;;;;;;;;;;;;;;27.81;37.77;102176.88;4975447;28;19922;-83
2021/08/13 09:26:22;;;;;;;;;;;;;;;28.00;36.40;102195.41;4975590;28;19914;-81
2021/08/13 09:28:47;;;;;;;;;;;;;;;27.20;37.55;102193.03;4975294;28;19938;-83
2021/08/13 09:31:24;;;;;;;;;;;;;;;27.23;37.05;102199.16;4975781;28;20320;-82
2021/08/13 09:33:53;;;;;;;;;;;;;;;26.83;37.41;102202.16;4976636;28;19918;-85
2021/08/13 09:36:20;;;;;;;;;;;;;;;27.11;36.74;102207.81;4976621;28;19929;-81
2021/08/13 09:38:47;;;;;;;;;;;;;;;27.11;36.50;102200.34;4976292;28;19929;-80
2021/08/13 09:41:13;;;;;;;;;;;;;;;27.81;35.27;102219.50;4974829;28;20000;-81
2021/08/13 09:43:54;;;;;;;;;;;;;;;28.46;34.18;102215.78;4978664;28;19957;-82
2021/08/13 09:46:19;;;;;;;;;;;;;;;27.71;35.70;102222.31;4979638;28;19918;-82
2021/08/13 09:48:44;;;;;;;;;;;;;;;26.23;38.31;102221.66;4978132;28;20406;-82
2021/08/13 09:51:29;;;;;;;;;;;;;;;27.58;36.04;102221.75;4978304;28;19918;-82
2021/08/13 09:53:58;;;;;;;;;;;;;;;27.27;36.39;102223.91;4978353;28;19992;-81
2021/08/13 09:56:30;;;;;;;;;;;;;;;28.36;35.27;102237.25;4961545;28;20337;-84
2021/08/13 09:59:15;;;;;;;;;;;;;;;28.72;34.29;102240.09;4976544;28;20339;-82
2021/08/13 10:01:40;;;;;;;;;;;;;;;28.86;33.79;102225.59;4960378;28;19950;-83
2021/08/13 10:04:06;;;;;;;;;;;;;;;27.41;35.05;102240.13;4978170;28;19973;-80
2021/08/13 10:06:32;;;;;;;;;;;;;;;26.97;35.26;102234.16;4977720;28;19922;-82
2021/08/13 10:08:57;;;;;;;;;;;;;;;27.13;35.71;102242.78;4976447;28;19929;-83
2021/08/13 10:11:23;;;;;;;;;;;;;;;27.62;35.24;102244.59;4978124;28;19910;-81
2021/08/13 10:13:48;;;;;;;;;;;;;;;27.64;34.55;102245.31;4978952;28;19961;-83
2021/08/13 10:16:20;;;;;;;;;;;;;;;27.60;34.69;102241.97;4977863;28;20017;-83
2021/08/13 10:18:45;;;;;;;;;;;;;;;27.92;33.49;102238.75;4979120;28;19918;-83
2021/08/13 10:21:10;;;;;;;;;;;;;;;26.88;35.17;102233.13;4977797;28;19960;-84
2021/08/13 10:23:37;;;;;;;;;;;;;;;27.64;33.75;102237.84;4977539;28;19922;-84
2021/08/13 10:26:02;;;;;;;;;;;;;;;26.90;35.33;102238.53;4977567;28;20343;-82
2021/08/13 10:28:28;;;;;;;;;;;;;;;27.48;34.45;102232.94;4978117;28;19918;-84
2021/08/13 10:30:53;;;;;;;;;;;;;;;27.92;33.54;102230.41;4978295;28;19937;-85
2021/08/13 10:33:19;;;;;;;;;;;;;;;28.55;33.19;102244.56;4978426;28;19918;-81
2021/08/13 10:35:48;;;;;;;;;;;;;;;28.21;34.15;102234.97;4961218;28;20368;-82
2021/08/13 10:38:14;;;;;;;;;;;;;;;27.68;34.49;102242.06;4978699;28;19921;-82
2021/08/13 10:40:40;;;;;;;;;;;;;;;28.73;32.66;102236.25;4976887;28;20021;-82
2021/08/13 10:43:06;;;;;;;;;;;;;;;29.03;32.45;102234.09;4976803;28;19955;-83
2021/08/13 10:45:32;;;;;;;;;;;;;;;27.29;33.69;102238.50;4978925;28;19965;-82
2021/08/13 10:48:02;;;;;;;;;;;;;;;27.93;34.13;102234.94;4978518;28;19929;-82
2021/08/13 10:50:28;;;;;;;;;;;;;;;28.09;33.35;102222.31;4961120;28;19918;-82
2021/08/13 10:52:53;;;;;;;;;;;;;;;27.90;34.56;102243.59;4961580;28;20484;-81
2021/08/13 10:55:37;;;;;;;;;;;;;;;27.76;34.00;102246.88;4975392;28;19926;-82
2021/08/13 10:58:02;;;;;;;;;;;;;;;27.89;34.35;102239.06;4978091;28;19918;-78
2021/08/13 11:00:48;;;;;;;;;;;;;;;28.11;34.19;102245.28;4960462;28;19941;-80
2021/08/13 11:03:13;;;;;;;;;;;;;;;28.83;33.42;102244.53;4978345;28;19938;-80
2021/08/13 11:05:49;;;;;;;;;;;;;;;29.15;31.99;102233.69;4960733;28;19922;-81
2021/08/13 11:08:14;;;;;;;;;;;;;;;29.36;31.98;102238.03;4961293;28;19918;-79
2021/08/13 11:10:39;;;;;;;;;;;;;;;28.84;32.33;102244.38;4979384;28;20415;-80
2021/08/13 11:13:14;;;;;;;;;;;;;;;28.85;32.99;102248.91;4978732;28;19925;-79
2021/08/13 11:15:40;;;;;;;;;;;;;;;28.33;33.64;102248.69;4961193;28;19923;-79
2021/08/13 11:18:25;;;;;;;;;;;;;;;27.26;34.57;102256.34;4961145;28;19982;-79
2021/08/13 11:20:50;;;;;;;;;;;;;;;27.52;34.56;102251.06;4968242;28;19946;-81
2021/08/13 11:23:16;;;;;;;;;;;;;;;28.52;33.11;102248.56;4978684;28;19918;-82
2021/08/13 11:25:48;;;;;;;;;;;;;;;28.29;33.37;102246.22;4976186;28;19945;-80
2021/08/13 11:28:15;;;;;;;;;;;;;;;28.12;33.37;102249.81;4977409;28;19918;-80
2021/08/13 11:30:42;;;;;;;;;;;;;;;29.51;31.28;102243.88;4978701;28;20009;-78
2021/08/13 11:33:30;;;;;;;;;;;;;;;30.14;30.37;102233.44;4976763;28;19918;-80
2021/08/13 11:35:57;;;;;;;;;;;;;;;29.50;30.81;102219.81;4970792;28;19922;-80
2021/08/13 11:38:46;;;;;;;;;;;;;;;29.89;30.06;102229.66;4977962;28;19918;-80
2021/08/13 11:41:20;;;;;;;;;;;;;;;30.09;30.26;102224.66;4970413;28;19929;-79
2021/08/13 11:43:46;;;;;;;;;;;;;;;28.46;32.33;102249.19;4978019;28;20367;-80
2021/08/13 11:46:42;;;;;;;;;;;;;;;28.16;33.13;102247.59;4977258;28;19940;-82
2021/08/13 11:49:08;;;;;;;;;;;;;;;28.96;32.47;102254.22;4960894;28;20403;-81
2021/08/13 11:51:33;;;;;;;;;;;;;;;29.13;32.08;102251.59;4959480;28;19966;-79
2021/08/13 11:53:59;;;;;;;;;;;;;;;29.07;31.88;102252.25;4960497;28;19926;-81
2021/08/13 11:56:28;;;;;;;;;;;;;;;28.88;32.45;102256.06;4977592;28;20005;-81
2021/08/13 11:58:57;;;;;;;;;;;;;;;28.86;32.00;102239.50;4976584;28;19957;-79
2021/08/13 12:01:23;;;;;;;;;;;;;;;29.46;31.45;102240.72;4976390;28;19926;-84
2021/08/13 12:03:50;;;;;;;;;;;;;;;28.82;31.82;102243.63;4975625;28;20013;-82
2021/08/13 12:06:16;;;;;;;;;;;;;;;28.06;32.92;102259.66;4975975;28;19918;-86
2021/08/13 12:08:45;;;;;;;;;;;;;;;28.31;33.02;102262.75;4977406;28;19925;-83
2021/08/13 12:11:11;;;;;;;;;;;;;;;28.72;32.68;102256.78;4976848;28;20008;-83
2021/08/13 12:13:36;;;;;;;;;;;;;;;28.78;32.37;102261.72;4977631;28;19974;-82
2021/08/13 12:16:03;;;;;;;;;;;;;;;27.86;33.23;102269.09;4977072;28;19933;-82
2021/08/13 12:18:30;;;;;;;;;;;;;;;27.80;33.90;102264.16;4961627;28;19922;-84
2021/08/13 12:20:55;;;;;;;;;;;;;;;29.21;32.53;102265.59;4976432;28;19950;-83
2021/08/13 12:23:21;;;;;;;;;;;;;;;28.08;34.05;102263.19;4977510;28;19922;-82
2021/08/13 12:25:47;;;;;;;;;;;;;;;29.83;31.91;102243.25;4978036;28;20009;-82
2021/08/13 12:28:13;;;;;;;;;;;;;;;30.53;31.02;102250.50;4977651;28;19970;-80
2021/08/13 12:30:39;;;;;;;;;;;;;;;29.29;32.23;102254.53;4976196;28;19933;-81
2021/08/13 12:33:05;;;;;;;;;;;;;;;30.25;31.20;102261.03;4976718;28;19918;-83